createdAt,value
2019-02-17T00:02:14.173Z,4.94
2019-02-17T00:04:43.751Z,4.98
2019-02-17T00:07:13.230Z,4.96
2019-02-17T00:09:42.746Z,4.81
2019-02-17T00:12:12.385Z,4.81
2019-02-17T00:14:41.868Z,4.82
2019-02-17T00:17:11.605Z,4.77
2019-02-17T00:19:41.032Z,4.67
2019-02-17T00:22:10.893Z,4.68
2019-02-17T00:24:40.527Z,4.64
2019-02-17T00:27:10.032Z,4.46
2019-02-17T00:29:39.654Z,4.42
2019-02-17T00:32:09.065Z,4.40
2019-02-17T00:34:38.480Z,4.41
2019-02-17T00:37:08.377Z,4.50
2019-02-17T00:39:37.862Z,4.59
2019-02-17T00:42:07.391Z,4.56
2019-02-17T00:44:37.026Z,4.66
2019-02-17T00:47:06.826Z,4.63
2019-02-17T00:49:36.410Z,4.78
2019-02-17T00:52:05.879Z,4.69
2019-02-17T00:54:35.418Z,4.75
2019-02-17T00:57:04.881Z,4.58
2019-02-17T00:59:34.531Z,4.48
2019-02-17T01:02:04.164Z,4.41
2019-02-17T01:04:33.596Z,4.44
2019-02-17T01:07:03.157Z,4.26
2019-02-17T01:09:32.758Z,4.13
2019-02-17T01:12:02.383Z,4.12
2019-02-17T01:14:31.811Z,4.17
2019-02-17T01:17:01.231Z,4.38
2019-02-17T01:19:30.987Z,4.47
2019-02-17T01:22:02.613Z,4.53
2019-02-17T01:24:32.157Z,4.38
2019-02-17T01:27:01.799Z,4.37
2019-02-17T01:29:31.260Z,4.35
2019-02-17T01:32:00.873Z,4.29
2019-02-17T01:34:30.393Z,4.28
2019-02-17T01:37:00.004Z,4.22
2019-02-17T01:39:29.489Z,4.23
2019-02-17T01:41:58.937Z,4.21
2019-02-17T01:44:28.522Z,4.13
2019-02-17T01:46:58.343Z,4.09
2019-02-17T01:49:27.773Z,3.94
2019-02-17T01:51:58.882Z,4.07
2019-02-17T01:54:30.029Z,4.01
2019-02-17T01:56:59.887Z,3.96
2019-02-17T01:59:30.868Z,3.96
2019-02-17T02:02:00.590Z,3.97
2019-02-17T02:04:30.097Z,3.91
2019-02-17T02:06:59.532Z,3.92
2019-02-17T02:09:29.280Z,3.94
2019-02-17T02:11:59.091Z,3.95
2019-02-17T02:14:28.642Z,3.92
2019-02-17T02:16:58.186Z,4.00
2019-02-17T02:19:27.663Z,3.93
2019-02-17T02:21:57.265Z,3.78
2019-02-17T02:24:26.689Z,3.65
2019-02-17T02:26:57.760Z,3.63
2019-02-17T02:29:27.609Z,3.68
2019-02-17T02:31:57.425Z,3.49
2019-02-17T02:34:27.028Z,3.45
2019-02-17T02:36:56.634Z,3.42
2019-02-17T02:39:26.240Z,3.32
2019-02-17T02:41:55.787Z,3.45
2019-02-17T02:44:25.240Z,3.43
2019-02-17T02:46:54.656Z,3.35
2019-02-17T02:49:24.273Z,3.42
2019-02-17T02:51:53.886Z,3.42
2019-02-17T02:54:23.619Z,3.37
2019-02-17T02:56:53.302Z,3.39
2019-02-17T02:59:23.062Z,3.39
2019-02-17T03:01:52.527Z,3.38
2019-02-17T03:04:22.120Z,3.24
2019-02-17T03:06:53.329Z,3.11
2019-02-17T03:09:22.729Z,3.04
2019-02-17T03:11:52.384Z,3.03
2019-02-17T03:14:21.983Z,3.05
2019-02-17T03:16:51.449Z,3.18
2019-02-17T03:19:20.858Z,3.19
2019-02-17T03:21:50.603Z,3.36
2019-02-17T03:24:20.111Z,3.43
2019-02-17T03:26:49.716Z,3.38
2019-02-17T03:29:19.187Z,3.23
2019-02-17T03:31:49.139Z,3.18
2019-02-17T03:34:18.580Z,3.32
2019-02-17T03:36:48.065Z,3.29
2019-02-17T03:39:17.579Z,3.25
2019-02-17T03:41:47.263Z,3.27
2019-02-17T03:44:16.751Z,3.30
2019-02-17T03:46:46.262Z,3.26
2019-02-17T03:49:15.996Z,3.18
2019-02-17T03:51:45.454Z,3.23
2019-02-17T03:54:15.066Z,3.17
2019-02-17T03:56:44.501Z,3.13
2019-02-17T03:59:14.204Z,3.07
2019-02-17T04:01:43.768Z,3.14
2019-02-17T04:04:13.268Z,3.06
2019-02-17T04:06:43.060Z,2.98
2019-02-17T04:09:13.155Z,2.93
2019-02-17T04:11:42.675Z,2.94
2019-02-17T04:14:12.288Z,2.98
2019-02-17T04:16:41.695Z,2.96
2019-02-17T04:19:11.503Z,2.90
2019-02-17T04:21:41.114Z,2.84
2019-02-17T04:24:10.562Z,2.85
2019-02-17T04:26:40.025Z,2.81
2019-02-17T04:29:10.289Z,2.77
2019-02-17T04:31:40.262Z,2.83
2019-02-17T04:34:09.809Z,2.78
2019-02-17T04:36:39.289Z,2.73
2019-02-17T04:39:09.032Z,2.78
2019-02-17T04:41:38.694Z,2.75
2019-02-17T04:44:08.150Z,2.69
2019-02-17T04:46:37.591Z,2.63
2019-02-17T04:49:07.385Z,2.65
2019-02-17T04:51:37.028Z,2.76
2019-02-17T04:54:06.833Z,2.76
2019-02-17T04:56:36.536Z,2.61
2019-02-17T04:59:05.944Z,2.57
2019-02-17T05:01:35.659Z,2.69
2019-02-17T05:04:05.137Z,2.67
2019-02-17T05:06:34.681Z,2.70
2019-02-17T05:09:04.967Z,2.55
2019-02-17T05:11:34.689Z,2.71
2019-02-17T05:14:04.481Z,2.77
2019-02-17T05:16:34.229Z,2.81
2019-02-17T05:19:03.764Z,2.80
2019-02-17T05:21:33.431Z,2.87
2019-02-17T05:24:03.043Z,2.85
2019-02-17T05:26:32.476Z,2.88
2019-02-17T05:29:02.046Z,2.87
2019-02-17T05:31:31.460Z,2.85
2019-02-17T05:34:01.218Z,2.76
2019-02-17T05:36:30.685Z,2.81
2019-02-17T05:39:00.341Z,2.87
2019-02-17T05:41:30.170Z,2.94
2019-02-17T05:43:59.810Z,3.08
2019-02-17T05:46:29.294Z,3.00
2019-02-17T05:49:00.382Z,2.92
2019-02-17T05:51:29.841Z,2.90
2019-02-17T05:53:59.376Z,2.84
2019-02-17T05:56:28.981Z,2.82
2019-02-17T05:58:58.622Z,2.82
2019-02-17T06:01:28.152Z,2.80
2019-02-17T06:03:57.714Z,2.82
2019-02-17T06:06:27.347Z,2.78
2019-02-17T06:08:56.987Z,2.81
2019-02-17T06:11:26.665Z,2.84
2019-02-17T06:13:56.067Z,3.02
2019-02-17T06:16:25.862Z,3.03
2019-02-17T06:18:55.656Z,3.04
2019-02-17T06:21:26.806Z,3.01
2019-02-17T06:23:56.295Z,3.02
2019-02-17T06:26:26.025Z,3.06
2019-02-17T06:28:55.843Z,3.17
2019-02-17T06:31:25.438Z,3.24
2019-02-17T06:33:54.944Z,3.27
2019-02-17T06:36:24.439Z,3.33
2019-02-17T06:38:54.276Z,3.22
2019-02-17T06:41:23.839Z,3.22
2019-02-17T06:43:53.358Z,3.30
2019-02-17T06:46:24.635Z,3.32
2019-02-17T06:48:54.410Z,3.39
2019-02-17T06:51:23.936Z,3.38
2019-02-17T06:53:53.667Z,3.44
2019-02-17T06:56:43.030Z,3.39
2019-02-17T06:59:12.767Z,3.67
2019-02-17T07:01:43.241Z,3.80
2019-02-17T07:04:12.722Z,3.82
2019-02-17T07:06:43.907Z,3.83
2019-02-17T07:09:13.390Z,3.81
2019-02-17T07:11:42.891Z,3.80
2019-02-17T07:14:12.537Z,3.99
2019-02-17T07:16:41.954Z,4.05
2019-02-17T07:19:11.398Z,4.04
2019-02-17T07:21:41.083Z,4.11
2019-02-17T07:24:10.587Z,4.12
2019-02-17T07:26:40.035Z,4.19
2019-02-17T07:29:09.779Z,4.22
2019-02-17T07:31:41.281Z,4.34
2019-02-17T07:34:10.950Z,4.29
2019-02-17T07:36:40.431Z,4.32
2019-02-17T07:39:10.038Z,4.27
2019-02-17T07:41:39.649Z,4.33
2019-02-17T07:44:09.108Z,4.41
2019-02-17T07:46:38.628Z,4.56
2019-02-17T07:49:08.094Z,4.51
2019-02-17T07:51:37.615Z,4.40
2019-02-17T07:54:07.179Z,4.43
2019-02-17T07:56:36.601Z,4.65
2019-02-17T07:59:06.161Z,4.62
2019-02-17T08:01:45.081Z,4.71
2019-02-17T08:04:07.071Z,4.80
2019-02-17T08:06:36.922Z,4.76
2019-02-17T08:09:06.957Z,4.89
2019-02-17T08:11:36.452Z,4.88
2019-02-17T08:14:06.045Z,4.96
2019-02-17T08:16:35.631Z,4.92
2019-02-17T08:19:05.214Z,4.91
2019-02-17T08:21:34.903Z,4.97
2019-02-17T08:24:04.441Z,5.22
2019-02-17T08:26:34.096Z,5.15
2019-02-17T08:29:03.626Z,5.19
2019-02-17T08:31:33.313Z,5.17
2019-02-17T08:34:02.952Z,5.25
2019-02-17T08:36:32.481Z,5.25
2019-02-17T08:39:01.933Z,5.18
2019-02-17T08:41:31.576Z,6.17
2019-02-17T08:44:01.051Z,6.89
2019-02-17T08:46:30.813Z,8.11
2019-02-17T08:49:00.232Z,8.54
2019-02-17T08:51:29.675Z,7.68
2019-02-17T08:53:59.209Z,8.17
2019-02-17T08:56:28.833Z,8.34
2019-02-17T08:58:58.439Z,8.68
2019-02-17T09:01:27.982Z,8.95
2019-02-17T09:03:57.650Z,8.99
2019-02-17T09:06:28.714Z,9.06
2019-02-17T09:08:58.317Z,8.96
2019-02-17T09:11:27.780Z,9.22
2019-02-17T09:13:57.289Z,9.63
2019-02-17T09:16:26.748Z,9.80
2019-02-17T09:18:56.279Z,10.12
2019-02-17T09:21:26.002Z,10.56
2019-02-17T09:23:55.480Z,10.22
2019-02-17T09:26:25.007Z,10.34
2019-02-17T09:28:54.423Z,10.28
2019-02-17T09:31:23.913Z,10.67
2019-02-17T09:33:53.337Z,10.69
2019-02-17T09:36:22.810Z,10.66
2019-02-17T09:38:52.453Z,10.83
2019-02-17T09:41:22.387Z,10.59
2019-02-17T09:43:52.082Z,10.60
2019-02-17T09:46:21.805Z,10.42
2019-02-17T09:48:51.215Z,10.07
2019-02-17T09:51:20.762Z,9.84
2019-02-17T09:53:50.683Z,9.81
2019-02-17T09:56:20.684Z,9.91
2019-02-17T09:58:50.139Z,9.80
2019-02-17T10:01:19.671Z,9.40
2019-02-17T10:03:49.190Z,9.61
2019-02-17T10:06:18.791Z,9.39
2019-02-17T10:08:48.359Z,9.35
2019-02-17T10:11:18.053Z,9.41
2019-02-17T10:13:49.181Z,9.57
2019-02-17T10:16:18.662Z,9.47
2019-02-17T10:18:48.175Z,9.49
2019-02-17T10:21:18.800Z,9.63
2019-02-17T10:23:48.291Z,9.46
2019-02-17T10:26:17.711Z,9.38
2019-02-17T10:28:47.170Z,9.50
2019-02-17T10:31:16.751Z,9.53
2019-02-17T10:33:46.432Z,9.58
2019-02-17T10:36:15.930Z,9.59
2019-02-17T10:38:45.622Z,9.57
2019-02-17T10:41:15.428Z,9.60
2019-02-17T10:43:44.985Z,9.57
2019-02-17T10:46:16.307Z,9.67
2019-02-17T10:48:45.805Z,9.86
2019-02-17T10:51:15.290Z,10.00
2019-02-17T10:53:44.816Z,10.05
2019-02-17T10:56:14.272Z,10.11
2019-02-17T10:58:43.685Z,9.98
2019-02-17T11:01:13.308Z,10.02
2019-02-17T11:03:46.080Z,10.16
2019-02-17T11:06:15.834Z,10.26
2019-02-17T11:08:45.313Z,10.26
2019-02-17T11:11:14.929Z,10.54
2019-02-17T11:13:44.356Z,10.44
2019-02-17T11:16:14.069Z,10.57
2019-02-17T11:18:43.791Z,10.58
2019-02-17T11:21:13.227Z,10.57
2019-02-17T11:23:42.759Z,10.60
2019-02-17T11:26:12.318Z,10.72
2019-02-17T11:28:41.747Z,10.86
2019-02-17T11:31:11.486Z,10.83
2019-02-17T11:33:41.038Z,10.94
2019-02-17T11:36:10.523Z,10.89
2019-02-17T11:38:40.287Z,10.85
2019-02-17T11:41:09.763Z,10.95
2019-02-17T11:43:39.370Z,11.12
2019-02-17T11:46:08.833Z,11.04
2019-02-17T11:48:38.431Z,11.12
2019-02-17T11:51:08.070Z,11.22
2019-02-17T11:53:39.199Z,11.23
2019-02-17T11:56:08.748Z,11.31
2019-02-17T11:58:38.299Z,11.31
2019-02-17T12:01:08.755Z,11.39
2019-02-17T12:03:38.279Z,11.38
2019-02-17T12:06:07.878Z,11.34
2019-02-17T12:08:37.539Z,11.51
2019-02-17T12:11:07.106Z,11.50
2019-02-17T12:13:36.669Z,11.54
2019-02-17T12:16:06.080Z,11.46
2019-02-17T12:18:35.690Z,11.31
2019-02-17T12:21:06.903Z,11.31
2019-02-17T12:23:40.911Z,11.31
2019-02-17T12:26:12.075Z,11.35
2019-02-17T12:28:43.412Z,11.26
2019-02-17T12:31:14.620Z,11.26
2019-02-17T12:33:44.404Z,11.17
2019-02-17T12:36:14.028Z,11.32
2019-02-17T12:38:43.810Z,11.35
2019-02-17T12:41:13.422Z,11.17
2019-02-17T12:43:43.044Z,11.23
2019-02-17T12:46:12.595Z,11.31
2019-02-17T12:48:42.255Z,11.33
2019-02-17T12:51:12.115Z,11.20
2019-02-17T12:53:41.547Z,11.19
2019-02-17T12:56:11.261Z,11.24
2019-02-17T12:58:41.202Z,11.24
2019-02-17T13:01:10.668Z,11.26
2019-02-17T13:03:40.360Z,11.31
2019-02-17T13:06:09.813Z,11.16
2019-02-17T13:08:39.488Z,11.00
2019-02-17T13:11:09.196Z,11.03
2019-02-17T13:13:38.869Z,11.09
2019-02-17T13:16:09.398Z,10.96
2019-02-17T13:18:38.880Z,11.11
2019-02-17T13:21:08.339Z,10.90
2019-02-17T13:23:37.959Z,11.01
2019-02-17T13:26:07.438Z,10.97
2019-02-17T13:28:36.994Z,10.85
2019-02-17T13:31:06.624Z,10.92
2019-02-17T13:33:39.122Z,11.06
2019-02-17T13:36:07.294Z,10.93
2019-02-17T13:38:36.777Z,10.87
2019-02-17T13:41:06.393Z,10.93
2019-02-17T13:43:35.801Z,10.88
2019-02-17T13:46:05.382Z,10.94
2019-02-17T13:48:34.888Z,10.86
2019-02-17T13:51:07.774Z,10.84
2019-02-17T13:53:37.305Z,10.72
2019-02-17T13:56:06.717Z,10.76
2019-02-17T13:58:36.222Z,10.84
2019-02-17T14:01:05.770Z,10.81
2019-02-17T14:03:35.243Z,10.64
2019-02-17T14:06:04.704Z,10.79
2019-02-17T14:08:34.283Z,10.72
2019-02-17T14:11:03.866Z,10.59
2019-02-17T14:13:33.388Z,10.58
2019-02-17T14:16:02.940Z,10.59
2019-02-17T14:18:32.450Z,10.44
2019-02-17T14:21:01.861Z,10.36
2019-02-17T14:23:31.651Z,10.40
2019-02-17T14:26:01.209Z,10.37
2019-02-17T14:28:31.057Z,10.35
2019-02-17T14:31:00.590Z,10.46
2019-02-17T14:33:30.102Z,10.52
2019-02-17T14:36:00.017Z,10.54
2019-02-17T14:38:29.502Z,10.47
2019-02-17T14:40:59.018Z,10.32
2019-02-17T14:43:28.485Z,10.34
2019-02-17T14:45:57.978Z,10.34
2019-02-17T14:48:27.633Z,10.26
2019-02-17T14:50:57.041Z,10.32
2019-02-17T14:53:26.518Z,10.39
2019-02-17T14:55:56.040Z,10.34
2019-02-17T14:58:25.583Z,10.32
2019-02-17T15:00:56.746Z,10.31
2019-02-17T15:03:26.383Z,10.26
2019-02-17T15:05:55.870Z,10.27
2019-02-17T15:08:25.355Z,10.22
2019-02-17T15:10:55.041Z,10.14
2019-02-17T15:13:24.909Z,10.11
2019-02-17T15:15:54.446Z,10.07
2019-02-17T15:18:24.208Z,10.04
2019-02-17T15:20:53.881Z,10.02
2019-02-17T15:23:23.508Z,10.10
2019-02-17T15:25:53.210Z,10.16
2019-02-17T15:28:22.928Z,9.97
2019-02-17T15:30:52.613Z,9.87
2019-02-17T15:33:22.119Z,10.02
2019-02-17T15:35:51.638Z,9.93
2019-02-17T15:38:21.154Z,9.88
2019-02-17T15:40:50.776Z,10.02
2019-02-17T15:43:20.454Z,9.87
2019-02-17T15:45:50.168Z,9.99
2019-02-17T15:48:20.299Z,9.93
2019-02-17T15:50:49.823Z,10.01
2019-02-17T15:53:19.289Z,9.87
2019-02-17T15:55:49.022Z,9.88
2019-02-17T15:58:18.734Z,9.87
2019-02-17T16:00:48.260Z,9.81
2019-02-17T16:03:17.779Z,9.85
2019-02-17T16:05:47.299Z,9.74
2019-02-17T16:08:16.843Z,9.74
2019-02-17T16:10:46.294Z,9.75
2019-02-17T16:13:15.779Z,9.92
2019-02-17T16:15:45.364Z,9.80
2019-02-17T16:18:14.875Z,9.83
2019-02-17T16:20:44.365Z,9.83
2019-02-17T16:23:13.854Z,9.74
2019-02-17T16:25:43.622Z,9.74
2019-02-17T16:28:13.329Z,9.78
2019-02-17T16:30:42.819Z,9.81
2019-02-17T16:33:12.302Z,9.86
2019-02-17T16:35:42.088Z,9.76
2019-02-17T16:38:11.609Z,9.77
2019-02-17T16:40:41.140Z,9.84
2019-02-17T16:43:13.035Z,9.79
2019-02-17T16:45:42.731Z,9.64
2019-02-17T16:48:12.410Z,9.68
2019-02-17T16:50:41.893Z,9.62
2019-02-17T16:53:11.635Z,9.64
2019-02-17T16:55:41.161Z,9.60
2019-02-17T16:58:10.635Z,9.63
2019-02-17T17:00:40.217Z,9.58
2019-02-17T17:03:09.737Z,9.69
2019-02-17T17:05:39.357Z,9.58
2019-02-17T17:08:09.076Z,9.68
2019-02-17T17:10:38.677Z,9.62
2019-02-17T17:13:09.964Z,9.52
2019-02-17T17:15:39.458Z,9.63
2019-02-17T17:18:09.023Z,9.67
2019-02-17T17:20:38.867Z,9.57
2019-02-17T17:23:08.279Z,9.54
2019-02-17T17:25:37.896Z,9.58
2019-02-17T17:28:07.472Z,9.52
2019-02-17T17:30:36.964Z,9.56
2019-02-17T17:33:06.396Z,9.52
2019-02-17T17:35:35.893Z,9.60
2019-02-17T17:38:05.347Z,9.50
2019-02-17T17:40:36.110Z,9.54
2019-02-17T17:43:05.687Z,9.45
2019-02-17T17:45:35.206Z,9.50
2019-02-17T17:48:06.147Z,9.46
2019-02-17T17:50:35.638Z,9.47
2019-02-17T17:53:05.549Z,9.49
2019-02-17T17:55:34.991Z,9.45
2019-02-17T17:58:04.743Z,9.52
2019-02-17T18:00:35.909Z,9.59
2019-02-17T18:03:07.411Z,9.46
2019-02-17T18:05:36.863Z,9.47
2019-02-17T18:08:06.653Z,9.42
2019-02-17T18:10:36.163Z,9.36
2019-02-17T18:13:05.786Z,9.52
2019-02-17T18:15:35.459Z,9.45
2019-02-17T18:18:06.816Z,9.47
2019-02-17T18:20:36.651Z,9.55
2019-02-17T18:23:06.368Z,9.59
2019-02-17T18:25:35.903Z,9.48
2019-02-17T18:28:05.548Z,9.34
2019-02-17T18:30:35.272Z,9.24
2019-02-17T18:33:04.877Z,9.39
2019-02-17T18:35:35.274Z,9.42
2019-02-17T18:38:05.057Z,9.34
2019-02-17T18:40:44.648Z,9.32
2019-02-17T18:43:07.780Z,9.39
2019-02-17T18:45:37.544Z,9.56
2019-02-17T18:48:08.575Z,9.45
2019-02-17T18:50:38.251Z,9.36
2019-02-17T18:53:07.979Z,9.25
2019-02-17T18:55:37.725Z,9.27
2019-02-17T18:58:07.378Z,9.25
2019-02-17T19:00:36.965Z,9.40
2019-02-17T19:03:06.662Z,9.41
2019-02-17T19:05:36.349Z,9.48
2019-02-17T19:08:06.451Z,9.42
2019-02-17T19:10:35.991Z,9.27
2019-02-17T19:13:05.471Z,9.27
2019-02-17T19:15:35.159Z,9.28
2019-02-17T19:18:04.699Z,9.37
2019-02-17T19:20:36.945Z,9.43
2019-02-17T19:23:06.789Z,9.29
2019-02-17T19:25:36.487Z,9.32
2019-02-17T19:28:05.906Z,9.43
2019-02-17T19:30:36.103Z,9.42
2019-02-17T19:33:05.607Z,9.43
2019-02-17T19:35:41.936Z,9.40
2019-02-17T19:38:06.605Z,9.40
2019-02-17T19:40:36.186Z,9.35
2019-02-17T19:43:05.752Z,9.38
2019-02-17T19:45:35.335Z,9.44
2019-02-17T19:48:04.831Z,9.48
2019-02-17T19:50:34.301Z,9.35
2019-02-17T19:53:03.783Z,9.06
2019-02-17T19:55:33.286Z,9.21
2019-02-17T19:58:03.035Z,9.13
2019-02-17T20:00:32.521Z,9.23
2019-02-17T20:03:06.974Z,9.32
2019-02-17T20:05:38.190Z,9.22
2019-02-17T20:08:07.684Z,9.26
2019-02-17T20:10:38.242Z,9.26
2019-02-17T20:13:08.514Z,9.07
2019-02-17T20:15:37.994Z,9.19
2019-02-17T20:18:07.428Z,9.16
2019-02-17T20:20:37.083Z,9.05
2019-02-17T20:23:06.721Z,9.10
2019-02-17T20:25:36.279Z,8.81
2019-02-17T20:28:05.714Z,8.76
2019-02-17T20:30:35.277Z,8.84
2019-02-17T20:33:04.720Z,8.62
2019-02-17T20:35:34.271Z,8.61
2019-02-17T20:38:03.920Z,8.62
2019-02-17T20:40:33.599Z,8.34
2019-02-17T20:43:03.563Z,8.21
2019-02-17T20:45:34.604Z,8.05
2019-02-17T20:48:04.210Z,8.17
2019-02-17T20:50:33.654Z,7.77
2019-02-17T20:53:03.295Z,7.98
2019-02-17T20:55:33.040Z,7.96
2019-02-17T20:58:02.541Z,7.80
2019-02-17T21:00:32.170Z,7.82
2019-02-17T21:03:02.176Z,7.73
2019-02-17T21:05:32.389Z,7.50
2019-02-17T21:08:02.149Z,7.52
2019-02-17T21:10:31.776Z,7.61
2019-02-17T21:13:01.317Z,7.53
2019-02-17T21:15:30.741Z,7.18
2019-02-17T21:18:00.475Z,7.00
2019-02-17T21:20:30.211Z,7.01
2019-02-17T21:23:00.166Z,7.08
2019-02-17T21:25:29.849Z,7.03
2019-02-17T21:27:59.465Z,7.01
2019-02-17T21:30:29.830Z,7.08
2019-02-17T21:32:59.361Z,6.97
2019-02-17T21:35:28.836Z,6.98
2019-02-17T21:37:58.287Z,6.86
2019-02-17T21:40:28.229Z,6.98
2019-02-17T21:42:58.034Z,6.92
2019-02-17T21:45:27.763Z,6.67
2019-02-17T21:47:59.163Z,6.61
2019-02-17T21:50:29.672Z,6.34
2019-02-17T21:52:59.209Z,6.10
2019-02-17T21:55:28.863Z,6.30
2019-02-17T21:57:58.351Z,6.49
2019-02-17T22:00:28.157Z,6.42
2019-02-17T22:02:57.601Z,6.19
2019-02-17T22:05:27.294Z,6.29
2019-02-17T22:07:57.000Z,6.16
2019-02-17T22:10:26.618Z,6.07
2019-02-17T22:12:56.132Z,6.18
2019-02-17T22:15:25.777Z,6.28
2019-02-17T22:17:55.297Z,6.19
2019-02-17T22:20:24.834Z,5.92
2019-02-17T22:22:54.525Z,6.05
2019-02-17T22:25:23.955Z,5.86
2019-02-17T22:27:53.759Z,5.45
2019-02-17T22:30:23.396Z,5.22
2019-02-17T22:32:52.935Z,5.26
2019-02-17T22:35:22.491Z,5.41
2019-02-17T22:37:52.083Z,5.35
2019-02-17T22:40:21.496Z,5.13
2019-02-17T22:42:51.092Z,5.07
2019-02-17T22:45:20.748Z,5.28
2019-02-17T22:47:50.531Z,5.47
2019-02-17T22:50:20.020Z,5.67
2019-02-17T22:52:49.495Z,5.66
2019-02-17T22:55:18.941Z,5.64
2019-02-17T22:57:48.403Z,5.65
2019-02-17T23:00:26.411Z,5.61
2019-02-17T23:02:55.837Z,5.56
2019-02-17T23:05:25.335Z,5.35
2019-02-17T23:07:55.031Z,5.19
2019-02-17T23:10:24.675Z,5.12
2019-02-17T23:12:54.104Z,5.32
2019-02-17T23:15:23.628Z,5.26
2019-02-17T23:17:53.631Z,4.88
2019-02-17T23:20:23.497Z,4.68
2019-02-17T23:22:54.781Z,4.85
2019-02-17T23:25:24.504Z,4.90
2019-02-17T23:27:54.491Z,5.07
2019-02-17T23:30:23.961Z,4.97
2019-02-17T23:32:53.500Z,4.88
2019-02-17T23:35:23.107Z,4.91
2019-02-17T23:37:52.815Z,4.94
2019-02-17T23:40:22.434Z,4.86
2019-02-17T23:42:51.886Z,4.84
2019-02-17T23:45:21.297Z,4.57
2019-02-17T23:47:52.344Z,4.30
2019-02-17T23:50:21.834Z,4.53
2019-02-17T23:52:51.283Z,4.77
2019-02-17T23:55:20.916Z,4.83
2019-02-17T23:57:50.621Z,4.75
